createdAt,value
2022-09-11T00:00:14.063Z,93.76
2022-09-11T00:01:14.060Z,93.45
2022-09-11T00:02:14.070Z,93.86
2022-09-11T00:03:14.000Z,94.11
2022-09-11T00:04:13.987Z,94.11
2022-09-11T00:05:13.968Z,94.01
2022-09-11T00:06:13.955Z,94.21
2022-09-11T00:07:13.958Z,94.21
2022-09-11T00:08:13.939Z,94.47
2022-09-11T00:09:13.971Z,94.52
2022-09-11T00:10:13.908Z,94.68
2022-09-11T00:11:13.925Z,94.68
2022-09-11T00:12:13.877Z,94.78
2022-09-11T00:13:13.864Z,94.88
2022-09-11T00:14:14.123Z,94.88
2022-09-11T00:15:13.841Z,94.37
2022-09-11T00:16:13.942Z,94.17
2022-09-11T00:17:13.829Z,94.07
2022-09-11T00:18:13.799Z,93.76
2022-09-11T00:19:13.802Z,93.80
2022-09-11T00:20:13.832Z,93.80
2022-09-11T00:21:13.747Z,93.90
2022-09-11T00:22:13.756Z,93.90
2022-09-11T00:23:13.724Z,93.90
2022-09-11T00:24:13.718Z,94.01
2022-09-11T00:25:13.721Z,94.21
2022-09-11T00:26:13.743Z,94.21
2022-09-11T00:27:13.674Z,93.90
2022-09-11T00:28:13.675Z,93.80
2022-09-11T00:29:13.646Z,92.99
2022-09-11T00:30:13.662Z,92.58
2022-09-11T00:31:13.710Z,92.79
2022-09-11T00:32:13.603Z,93.19
2022-09-11T00:33:13.589Z,93.40
2022-09-11T00:34:13.591Z,93.60
2022-09-11T00:35:13.581Z,93.60
2022-09-11T00:36:13.590Z,93.80
2022-09-11T00:37:13.554Z,93.80
2022-09-11T00:38:17.233Z,93.55
2022-09-11T00:39:13.503Z,93.76
2022-09-11T00:40:13.544Z,94.11
2022-09-11T00:41:13.491Z,94.31
2022-09-11T00:42:13.479Z,94.21
2022-09-11T00:43:13.505Z,94.31
2022-09-11T00:44:13.449Z,94.42
2022-09-11T00:45:13.421Z,94.42
2022-09-11T00:46:13.434Z,94.27
2022-09-11T00:47:13.429Z,94.17
2022-09-11T00:48:13.439Z,94.27
2022-09-11T00:49:13.370Z,94.17
2022-09-11T00:50:13.375Z,94.57
2022-09-11T00:51:13.343Z,94.88
2022-09-11T00:52:13.361Z,94.57
2022-09-11T00:53:13.331Z,93.96
2022-09-11T00:54:13.309Z,93.86
2022-09-11T00:55:13.310Z,93.86
2022-09-11T00:56:13.284Z,94.37
2022-09-11T00:57:13.287Z,94.37
2022-09-11T00:58:13.258Z,94.57
2022-09-11T00:59:13.230Z,94.37
2022-09-11T01:00:13.234Z,94.57
2022-09-11T01:01:13.247Z,94.47
2022-09-11T01:02:13.257Z,94.37
2022-09-11T01:03:13.212Z,94.27
2022-09-11T01:04:13.173Z,94.17
2022-09-11T01:05:13.156Z,94.37
2022-09-11T01:06:13.146Z,94.27
2022-09-11T01:07:13.152Z,94.47
2022-09-11T01:08:13.117Z,94.62
2022-09-11T01:09:13.125Z,94.82
2022-09-11T01:10:13.120Z,95.13
2022-09-11T01:11:13.068Z,95.53
2022-09-11T01:12:13.054Z,95.53
2022-09-11T01:13:13.050Z,95.53
2022-09-11T01:14:13.062Z,95.78
2022-09-11T01:15:13.047Z,95.98
2022-09-11T01:16:13.094Z,95.98
2022-09-11T01:17:12.996Z,96.19
2022-09-11T01:18:12.992Z,96.30
2022-09-11T01:19:12.999Z,96.30
2022-09-11T01:20:12.960Z,96.39
2022-09-11T01:21:12.940Z,96.19
2022-09-11T01:22:12.930Z,96.30
2022-09-11T01:23:12.909Z,96.19
2022-09-11T01:24:12.933Z,96.09
2022-09-11T01:25:12.881Z,96.09
2022-09-11T01:26:12.866Z,95.37
2022-09-11T01:27:12.863Z,95.17
2022-09-11T01:28:12.877Z,95.17
2022-09-11T01:29:12.834Z,94.76
2022-09-11T01:30:12.812Z,94.56
2022-09-11T01:31:12.929Z,94.76
2022-09-11T01:32:12.793Z,94.56
2022-09-11T01:33:12.775Z,94.35
2022-09-11T01:34:12.763Z,94.35
2022-09-11T01:35:12.777Z,93.85
2022-09-11T01:36:12.770Z,93.85
2022-09-11T01:37:12.765Z,94.05
2022-09-11T01:38:12.709Z,93.95
2022-09-11T01:39:12.692Z,94.05
2022-09-11T01:40:12.735Z,93.33
2022-09-11T01:41:12.688Z,93.54
2022-09-11T01:42:12.665Z,93.09
2022-09-11T01:43:12.738Z,93.19
2022-09-11T01:44:12.626Z,92.99
2022-09-11T01:45:12.638Z,93.19
2022-09-11T01:46:12.637Z,93.19
2022-09-11T01:47:12.591Z,93.29
2022-09-11T01:48:12.574Z,93.60
2022-09-11T01:49:12.563Z,92.79
2022-09-11T01:50:12.550Z,93.29
2022-09-11T01:51:12.557Z,93.19
2022-09-11T01:52:12.519Z,93.19
2022-09-11T01:53:12.504Z,93.09
2022-09-11T01:54:12.496Z,93.19
2022-09-11T01:55:12.503Z,93.50
2022-09-11T01:56:12.466Z,93.50
2022-09-11T01:57:12.453Z,94.01
2022-09-11T01:58:12.439Z,94.42
2022-09-11T01:59:12.444Z,94.52
2022-09-11T02:00:12.413Z,94.42
2022-09-11T02:01:12.448Z,93.90
2022-09-11T02:02:12.426Z,93.60
2022-09-11T02:03:12.355Z,94.11
2022-09-11T02:04:12.363Z,94.11
2022-09-11T02:05:12.360Z,93.90
2022-09-11T02:06:12.333Z,93.50
2022-09-11T02:07:12.312Z,93.60
2022-09-11T02:08:12.301Z,93.70
2022-09-11T02:09:12.306Z,94.11
2022-09-11T02:10:12.275Z,94.21
2022-09-11T02:11:12.256Z,94.42
2022-09-11T02:12:12.245Z,94.92
2022-09-11T02:13:12.235Z,94.82
2022-09-11T02:14:12.243Z,94.42
2022-09-11T02:15:12.193Z,94.21
2022-09-11T02:16:12.489Z,94.31
2022-09-11T02:17:12.200Z,94.21
2022-09-11T02:18:12.168Z,94.52
2022-09-11T02:19:12.146Z,94.21
2022-09-11T02:20:12.141Z,94.11
2022-09-11T02:21:12.157Z,94.31
2022-09-11T02:22:12.130Z,94.31
2022-09-11T02:23:12.090Z,93.90
2022-09-11T02:24:12.106Z,93.80
2022-09-11T02:25:12.070Z,94.11
2022-09-11T02:26:12.055Z,94.31
2022-09-11T02:27:12.036Z,94.42
2022-09-11T02:28:12.058Z,94.72
2022-09-11T02:29:12.002Z,94.72
2022-09-11T02:30:12.003Z,94.92
2022-09-11T02:31:12.053Z,95.23
2022-09-11T02:32:11.976Z,95.33
2022-09-11T02:33:11.953Z,94.82
2022-09-11T02:34:11.963Z,94.82
2022-09-11T02:35:11.951Z,94.62
2022-09-11T02:36:11.925Z,94.56
2022-09-11T02:37:11.922Z,94.87
2022-09-11T02:38:11.912Z,95.13
2022-09-11T02:39:11.865Z,95.17
2022-09-11T02:40:11.912Z,95.37
2022-09-11T02:41:11.855Z,95.48
2022-09-11T02:42:11.845Z,95.17
2022-09-11T02:43:11.850Z,94.87
2022-09-11T02:44:11.818Z,94.26
2022-09-11T02:45:11.814Z,94.05
2022-09-11T02:46:11.781Z,93.95
2022-09-11T02:47:11.778Z,93.74
2022-09-11T02:48:11.755Z,93.85
2022-09-11T02:49:11.740Z,94.26
2022-09-11T02:50:11.778Z,93.24
2022-09-11T02:51:11.741Z,93.03
2022-09-11T02:52:11.757Z,93.44
2022-09-11T02:53:11.692Z,92.79
2022-09-11T02:54:11.676Z,93.29
2022-09-11T02:55:11.665Z,93.50
2022-09-11T02:56:11.674Z,93.13
2022-09-11T02:57:11.658Z,93.33
2022-09-11T02:58:11.621Z,93.74
2022-09-11T02:59:11.594Z,93.74
2022-09-11T03:00:11.635Z,93.85
2022-09-11T03:01:11.680Z,93.24
2022-09-11T03:02:11.602Z,93.85
2022-09-11T03:03:11.551Z,94.56
2022-09-11T03:04:11.588Z,94.35
2022-09-11T03:05:11.525Z,94.56
2022-09-11T03:06:11.532Z,95.07
2022-09-11T03:07:11.494Z,95.07
2022-09-11T03:08:11.488Z,95.28
2022-09-11T03:09:11.467Z,95.37
2022-09-11T03:10:11.457Z,95.17
2022-09-11T03:11:11.459Z,95.07
2022-09-11T03:12:11.427Z,94.97
2022-09-11T03:13:11.415Z,94.97
2022-09-11T03:14:11.398Z,94.56
2022-09-11T03:15:11.413Z,94.35
2022-09-11T03:16:11.402Z,94.97
2022-09-11T03:17:11.358Z,94.56
2022-09-11T03:18:11.371Z,94.26
2022-09-11T03:19:11.325Z,94.26
2022-09-11T03:20:11.321Z,94.46
2022-09-11T03:21:11.344Z,94.87
2022-09-11T03:22:11.300Z,94.76
2022-09-11T03:23:11.281Z,94.15
2022-09-11T03:24:11.263Z,93.85
2022-09-11T03:25:11.246Z,94.05
2022-09-11T03:26:11.255Z,94.46
2022-09-11T03:27:11.216Z,94.56
2022-09-11T03:28:11.214Z,94.56
2022-09-11T03:29:11.193Z,94.46
2022-09-11T03:30:11.203Z,94.11
2022-09-11T03:31:11.250Z,94.21
2022-09-11T03:32:11.151Z,94.21
2022-09-11T03:33:11.139Z,94.11
2022-09-11T03:34:11.125Z,94.42
2022-09-11T03:35:11.106Z,94.72
2022-09-11T03:36:11.132Z,94.82
2022-09-11T03:37:11.104Z,94.52
2022-09-11T03:38:11.070Z,94.11
2022-09-11T03:39:11.058Z,94.21
2022-09-11T03:40:11.086Z,94.31
2022-09-11T03:41:11.029Z,94.42
2022-09-11T03:42:11.051Z,94.42
2022-09-11T03:43:11.027Z,94.31
2022-09-11T03:44:10.991Z,94.31
2022-09-11T03:45:11.013Z,94.52
2022-09-11T03:46:10.969Z,94.92
2022-09-11T03:47:10.984Z,95.03
2022-09-11T03:48:10.933Z,95.13
2022-09-11T03:49:10.939Z,94.82
2022-09-11T03:50:10.906Z,94.62
2022-09-11T03:51:10.917Z,94.72
2022-09-11T03:52:10.876Z,95.53
2022-09-11T03:53:10.862Z,96.09
2022-09-11T03:54:10.883Z,96.30
2022-09-11T03:55:10.886Z,96.30
2022-09-11T03:56:10.833Z,96.19
2022-09-11T03:57:10.803Z,96.30
2022-09-11T03:58:10.789Z,96.39
2022-09-11T03:59:10.784Z,96.19
2022-09-11T04:00:10.787Z,95.98
2022-09-11T04:01:10.959Z,95.98
2022-09-11T04:02:10.786Z,95.98
2022-09-11T04:03:10.736Z,95.89
2022-09-11T04:04:10.724Z,95.78
2022-09-11T04:05:10.705Z,95.78
2022-09-11T04:06:10.714Z,95.89
2022-09-11T04:07:10.671Z,96.15
2022-09-11T04:08:10.661Z,95.98
2022-09-11T04:09:10.645Z,95.68
2022-09-11T04:10:10.641Z,95.74
2022-09-11T04:11:10.648Z,95.78
2022-09-11T04:12:10.599Z,95.48
2022-09-11T04:13:10.595Z,95.48
2022-09-11T04:14:10.576Z,95.48
2022-09-11T04:15:10.562Z,95.48
2022-09-11T04:16:10.598Z,95.48
2022-09-11T04:17:10.566Z,95.68
2022-09-11T04:18:10.520Z,95.78
2022-09-11T04:19:10.505Z,95.74
2022-09-11T04:20:10.493Z,95.48
2022-09-11T04:21:10.557Z,95.07
2022-09-11T04:22:10.464Z,95.37
2022-09-11T04:23:10.457Z,95.68
2022-09-11T04:24:10.473Z,96.19
2022-09-11T04:25:10.425Z,96.50
2022-09-11T04:26:10.413Z,96.60
2022-09-11T04:27:10.396Z,96.70
2022-09-11T04:28:10.422Z,96.60
2022-09-11T04:29:10.367Z,96.70
2022-09-11T04:30:10.352Z,96.60
2022-09-11T04:31:10.345Z,96.60
2022-09-11T04:32:10.332Z,96.60
2022-09-11T04:33:10.345Z,96.95
2022-09-11T04:34:10.302Z,97.16
2022-09-11T04:35:10.315Z,96.84
2022-09-11T04:36:10.269Z,96.95
2022-09-11T04:37:10.269Z,97.36
2022-09-11T04:38:10.248Z,97.16
2022-09-11T04:39:10.233Z,96.95
2022-09-11T04:40:10.307Z,96.95
2022-09-11T04:41:10.228Z,96.64
2022-09-11T04:42:10.213Z,96.44
2022-09-11T04:43:10.225Z,96.54
2022-09-11T04:44:10.162Z,96.03
2022-09-11T04:45:10.172Z,95.52
2022-09-11T04:46:10.173Z,95.32
2022-09-11T04:47:10.166Z,95.32
2022-09-11T04:48:10.114Z,95.52
2022-09-11T04:49:10.124Z,95.42
2022-09-11T04:50:10.088Z,95.83
2022-09-11T04:51:10.072Z,96.23
2022-09-11T04:52:10.067Z,96.23
2022-09-11T04:53:10.037Z,96.03
2022-09-11T04:54:10.051Z,95.93
2022-09-11T04:55:10.017Z,96.03
2022-09-11T04:56:09.998Z,95.93
2022-09-11T04:57:10.017Z,95.83
2022-09-11T04:58:09.977Z,95.73
2022-09-11T04:59:09.984Z,95.83
2022-09-11T05:00:09.945Z,95.62
2022-09-11T05:01:09.958Z,95.52
2022-09-11T05:02:09.956Z,95.21
2022-09-11T05:03:09.936Z,95.42
2022-09-11T05:04:09.908Z,95.42
2022-09-11T05:05:09.904Z,95.32
2022-09-11T05:06:09.857Z,95.52
2022-09-11T05:07:09.858Z,95.83
2022-09-11T05:08:09.828Z,95.62
2022-09-11T05:09:09.831Z,95.42
2022-09-11T05:10:09.838Z,95.28
2022-09-11T05:11:09.797Z,95.17
2022-09-11T05:12:09.791Z,95.07
2022-09-11T05:13:09.796Z,94.56
2022-09-11T05:14:09.759Z,95.48
2022-09-11T05:15:09.786Z,95.89
2022-09-11T05:16:09.860Z,95.98
2022-09-11T05:17:09.720Z,95.98
2022-09-11T05:18:09.701Z,96.09
2022-09-11T05:19:09.708Z,95.98
2022-09-11T05:20:11.901Z,95.98
2022-09-11T05:21:09.667Z,96.09
2022-09-11T05:22:09.635Z,96.03
2022-09-11T05:23:09.634Z,95.98
2022-09-11T05:24:09.622Z,96.09
2022-09-11T05:25:09.629Z,96.39
2022-09-11T05:26:09.618Z,96.19
2022-09-11T05:27:09.571Z,96.09
2022-09-11T05:28:09.591Z,96.39
2022-09-11T05:29:09.557Z,96.70
2022-09-11T05:30:09.598Z,96.80
2022-09-11T05:31:09.525Z,96.80
2022-09-11T05:32:09.516Z,96.80
2022-09-11T05:33:09.530Z,96.70
2022-09-11T05:34:09.500Z,96.39
2022-09-11T05:35:09.475Z,96.30
2022-09-11T05:36:09.449Z,96.19
2022-09-11T05:37:09.438Z,96.30
2022-09-11T05:38:09.444Z,96.39
2022-09-11T05:39:09.429Z,96.70
2022-09-11T05:40:09.466Z,97.00
2022-09-11T05:41:09.397Z,97.11
2022-09-11T05:42:09.408Z,97.00
2022-09-11T05:43:09.374Z,97.00
2022-09-11T05:44:09.342Z,96.91
2022-09-11T05:45:09.349Z,96.80
2022-09-11T05:46:09.394Z,96.80
2022-09-11T05:47:09.301Z,97.00
2022-09-11T05:48:09.303Z,96.91
2022-09-11T05:49:09.338Z,97.05
2022-09-11T05:50:09.326Z,97.16
2022-09-11T05:51:09.247Z,97.25
2022-09-11T05:52:09.247Z,97.66
2022-09-11T05:53:09.232Z,97.56
2022-09-11T05:54:09.211Z,97.66
2022-09-11T05:55:09.229Z,97.77
2022-09-11T05:56:09.180Z,97.46
2022-09-11T05:57:09.165Z,97.25
2022-09-11T05:58:09.146Z,97.21
2022-09-11T05:59:09.145Z,96.91
2022-09-11T06:00:09.145Z,97.00
2022-09-11T06:01:09.232Z,97.00
2022-09-11T06:02:09.139Z,96.80
2022-09-11T06:03:11.499Z,96.70
2022-09-11T06:04:09.106Z,96.80
2022-09-11T06:05:09.057Z,97.31
2022-09-11T06:06:09.072Z,97.52
2022-09-11T06:07:09.031Z,97.31
2022-09-11T06:08:09.017Z,97.27
2022-09-11T06:09:09.022Z,97.16
2022-09-11T06:10:08.983Z,96.96
2022-09-11T06:11:09.008Z,96.96
2022-09-11T06:12:08.958Z,96.76
2022-09-11T06:13:08.964Z,96.76
2022-09-11T06:14:08.935Z,96.55
2022-09-11T06:15:20.295Z,96.55
2022-09-11T06:16:08.932Z,97.00
2022-09-11T06:17:08.892Z,96.80
2022-09-11T06:18:08.955Z,96.70
2022-09-11T06:19:08.881Z,96.91
2022-09-11T06:20:08.874Z,97.27
2022-09-11T06:21:08.844Z,97.27
2022-09-11T06:22:08.859Z,97.06
2022-09-11T06:23:09.468Z,96.96
2022-09-11T06:24:08.827Z,97.27
2022-09-11T06:25:08.785Z,97.27
2022-09-11T06:26:08.777Z,97.16
2022-09-11T06:27:08.803Z,97.06
2022-09-11T06:28:08.776Z,96.96
2022-09-11T06:29:08.736Z,96.86
2022-09-11T06:30:08.714Z,96.86
2022-09-11T06:31:08.708Z,96.76
2022-09-11T06:32:08.724Z,96.76
2022-09-11T06:33:08.677Z,96.45
2022-09-11T06:34:08.666Z,96.15
2022-09-11T06:35:08.655Z,96.15
2022-09-11T06:36:08.638Z,96.66
2022-09-11T06:37:08.688Z,96.66
2022-09-11T06:38:08.613Z,96.76
2022-09-11T06:39:08.625Z,96.96
2022-09-11T06:40:08.615Z,96.86
2022-09-11T06:41:08.570Z,96.86
2022-09-11T06:42:08.560Z,96.96
2022-09-11T06:43:08.543Z,96.45
2022-09-11T06:44:08.560Z,96.45
2022-09-11T06:45:08.551Z,96.61
2022-09-11T06:46:08.566Z,96.81
2022-09-11T06:47:08.522Z,97.12
2022-09-11T06:48:08.472Z,97.12
2022-09-11T06:49:08.472Z,97.02
2022-09-11T06:50:08.446Z,97.12
2022-09-11T06:51:08.448Z,97.02
2022-09-11T06:52:08.559Z,96.35
2022-09-11T06:53:08.407Z,96.45
2022-09-11T06:54:08.400Z,96.15
2022-09-11T06:55:08.376Z,96.15
2022-09-11T06:56:08.355Z,95.94
2022-09-11T06:57:08.425Z,95.94
2022-09-11T06:58:08.340Z,96.41
2022-09-11T06:59:08.337Z,96.41
2022-09-11T07:00:08.323Z,96.51
2022-09-11T07:01:08.458Z,96.41
2022-09-11T07:02:08.393Z,96.30
2022-09-11T07:03:08.298Z,95.90
2022-09-11T07:04:08.264Z,95.69
2022-09-11T07:05:08.248Z,95.39
2022-09-11T07:06:08.240Z,95.39
2022-09-11T07:07:08.224Z,95.18
2022-09-11T07:08:08.231Z,94.98
2022-09-11T07:09:08.191Z,94.68
2022-09-11T07:10:08.191Z,94.98
2022-09-11T07:11:08.170Z,94.88
2022-09-11T07:12:08.147Z,95.08
2022-09-11T07:13:08.137Z,95.18
2022-09-11T07:14:08.159Z,95.39
2022-09-11T07:15:08.101Z,95.39
2022-09-11T07:16:08.170Z,94.88
2022-09-11T07:17:08.080Z,93.96
2022-09-11T07:18:08.074Z,93.82
2022-09-11T07:19:08.083Z,94.02
2022-09-11T07:20:08.038Z,93.62
2022-09-11T07:21:08.035Z,94.02
2022-09-11T07:22:08.017Z,94.12
2022-09-11T07:23:08.025Z,94.12
2022-09-11T07:24:08.006Z,94.12
2022-09-11T07:25:08.021Z,94.32
2022-09-11T07:26:07.968Z,94.02
2022-09-11T07:27:07.962Z,93.92
2022-09-11T07:28:07.955Z,94.12
2022-09-11T07:29:07.924Z,93.41
2022-09-11T07:30:07.902Z,93.82
2022-09-11T07:31:07.956Z,93.31
2022-09-11T07:32:07.876Z,93.71
2022-09-11T07:33:07.892Z,94.02
2022-09-11T07:34:07.948Z,94.84
2022-09-11T07:35:07.868Z,95.45
2022-09-11T07:36:07.838Z,95.95
2022-09-11T07:37:07.840Z,95.85
2022-09-11T07:38:07.807Z,95.54
2022-09-11T07:39:07.793Z,95.34
2022-09-11T07:40:07.867Z,95.45
2022-09-11T07:41:07.771Z,95.45
2022-09-11T07:42:07.753Z,95.85
2022-09-11T07:43:07.773Z,96.06
2022-09-11T07:44:07.719Z,96.36
2022-09-11T07:45:07.733Z,96.36
2022-09-11T07:46:07.720Z,96.46
2022-09-11T07:47:07.671Z,96.67
2022-09-11T07:48:07.668Z,96.67
2022-09-11T07:49:07.677Z,96.77
2022-09-11T07:50:07.743Z,96.97
2022-09-11T07:51:07.632Z,96.92
2022-09-11T07:52:07.617Z,97.22
2022-09-11T07:53:07.633Z,97.12
2022-09-11T07:54:07.582Z,97.22
2022-09-11T07:55:07.571Z,97.32
2022-09-11T07:56:07.564Z,97.12
2022-09-11T07:57:07.547Z,96.81
2022-09-11T07:58:07.533Z,97.32
2022-09-11T07:59:07.565Z,97.22
2022-09-11T08:00:07.502Z,97.12
2022-09-11T08:01:07.529Z,97.22
2022-09-11T08:02:07.533Z,97.02
2022-09-11T08:03:07.478Z,96.92
2022-09-11T08:04:07.450Z,97.07
2022-09-11T08:05:07.460Z,96.97
2022-09-11T08:06:07.425Z,96.15
2022-09-11T08:07:07.411Z,96.26
2022-09-11T08:08:07.401Z,96.46
2022-09-11T08:09:07.421Z,96.46
2022-09-11T08:10:26.163Z,95.75
2022-09-11T08:11:07.363Z,94.84
2022-09-11T08:12:07.338Z,94.84
2022-09-11T08:13:09.562Z,95.54
2022-09-11T08:14:07.353Z,94.63
2022-09-11T08:15:07.339Z,94.63
2022-09-11T08:16:07.410Z,94.93
2022-09-11T08:17:07.269Z,95.24
2022-09-11T08:18:07.335Z,95.34
2022-09-11T08:19:07.270Z,95.45
2022-09-11T08:20:07.227Z,95.45
2022-09-11T08:21:12.534Z,95.40
2022-09-11T08:22:07.236Z,95.20
2022-09-11T08:23:07.204Z,95.09
2022-09-11T08:24:07.209Z,95.00
2022-09-11T08:25:07.152Z,95.09
2022-09-11T08:26:07.795Z,95.09
2022-09-11T08:27:07.151Z,95.00
2022-09-11T08:28:07.116Z,95.09
2022-09-11T08:29:07.104Z,95.34
2022-09-11T08:30:07.095Z,95.34
2022-09-11T08:31:07.869Z,95.14
2022-09-11T08:32:07.070Z,95.65
2022-09-11T08:33:07.044Z,95.75
2022-09-11T08:34:07.054Z,95.85
2022-09-11T08:35:07.021Z,95.85
2022-09-11T08:36:07.040Z,96.06
2022-09-11T08:37:06.996Z,96.46
2022-09-11T08:38:07.007Z,96.36
2022-09-11T08:39:07.005Z,96.36
2022-09-11T08:40:06.999Z,96.67
2022-09-11T08:41:06.952Z,96.77
2022-09-11T08:42:06.934Z,96.56
2022-09-11T08:43:06.935Z,96.56
2022-09-11T08:44:06.908Z,96.06
2022-09-11T08:45:06.923Z,96.06
2022-09-11T08:46:06.908Z,96.06
2022-09-11T08:47:06.867Z,96.46
2022-09-11T08:48:06.857Z,96.67
2022-09-11T08:49:06.839Z,96.67
2022-09-11T08:50:06.850Z,96.22
2022-09-11T08:51:07.802Z,96.22
2022-09-11T08:52:06.833Z,96.31
2022-09-11T08:53:10.927Z,96.42
2022-09-11T08:54:06.779Z,96.42
2022-09-11T08:55:06.760Z,96.52
2022-09-11T08:56:07.318Z,96.62
2022-09-11T08:57:06.807Z,96.42
2022-09-11T08:58:06.736Z,96.22
2022-09-11T08:59:06.712Z,96.31
2022-09-11T09:00:06.726Z,96.52
2022-09-11T09:01:07.353Z,96.52
2022-09-11T09:02:06.703Z,96.62
2022-09-11T09:03:06.652Z,96.72
2022-09-11T09:04:06.637Z,96.92
2022-09-11T09:05:06.625Z,96.92
2022-09-11T09:06:07.337Z,96.62
2022-09-11T09:07:06.589Z,96.62
2022-09-11T09:08:06.576Z,96.62
2022-09-11T09:09:06.585Z,96.52
2022-09-11T09:10:06.547Z,96.62
2022-09-11T09:11:07.348Z,96.83
2022-09-11T09:12:06.531Z,96.01
2022-09-11T09:13:06.512Z,96.42
2022-09-11T09:14:06.514Z,96.62
2022-09-11T09:15:06.485Z,97.03
2022-09-11T09:16:07.370Z,96.92
2022-09-11T09:17:06.473Z,96.92
2022-09-11T09:18:06.443Z,96.62
2022-09-11T09:19:06.447Z,96.83
2022-09-11T09:20:06.424Z,95.91
2022-09-11T09:21:07.353Z,96.72
2022-09-11T09:22:06.401Z,96.83
2022-09-11T09:23:06.374Z,96.88
2022-09-11T09:24:06.381Z,96.78
2022-09-11T09:25:06.390Z,96.98
2022-09-11T09:26:07.320Z,96.37
2022-09-11T09:27:06.316Z,95.66
2022-09-11T09:28:06.332Z,95.51
2022-09-11T09:29:06.312Z,95.82
2022-09-11T09:30:06.293Z,95.92
2022-09-11T09:31:07.891Z,95.51
2022-09-11T09:32:06.297Z,95.21
2022-09-11T09:33:08.330Z,95.10
2022-09-11T09:34:06.238Z,95.21
2022-09-11T09:35:06.222Z,96.08
2022-09-11T09:36:07.894Z,96.89
2022-09-11T09:37:06.190Z,96.89
2022-09-11T09:38:06.174Z,96.38
2022-09-11T09:39:06.163Z,95.87
2022-09-11T09:40:06.236Z,95.37
2022-09-11T09:41:06.830Z,94.92
2022-09-11T09:42:06.130Z,94.71
2022-09-11T09:43:06.131Z,95.32
2022-09-11T09:44:06.093Z,95.73
2022-09-11T09:45:06.078Z,96.44
2022-09-11T09:46:06.889Z,97.05
2022-09-11T09:47:06.053Z,96.95
2022-09-11T09:48:06.036Z,96.70
2022-09-11T09:49:06.026Z,96.30
2022-09-11T09:50:06.046Z,96.19
2022-09-11T09:51:06.822Z,96.19
2022-09-11T09:52:05.992Z,95.79
2022-09-11T09:53:05.976Z,95.58
2022-09-11T09:54:05.961Z,95.07
2022-09-11T09:55:05.973Z,94.57
2022-09-11T09:56:06.831Z,93.25
2022-09-11T09:57:05.915Z,92.44
2022-09-11T09:58:05.935Z,93.25
2022-09-11T09:59:05.891Z,93.25
2022-09-11T10:00:05.910Z,93.90
2022-09-11T10:01:08.851Z,94.67
2022-09-11T10:02:05.983Z,94.77
2022-09-11T10:03:05.864Z,95.07
2022-09-11T10:04:05.871Z,95.07
2022-09-11T10:05:05.805Z,94.77
2022-09-11T10:06:08.343Z,94.87
2022-09-11T10:07:05.788Z,94.46
2022-09-11T10:08:05.784Z,92.94
2022-09-11T10:09:05.785Z,91.12
2022-09-11T10:10:05.754Z,91.02
2022-09-11T10:11:08.325Z,91.73
2022-09-11T10:12:05.726Z,91.42
2022-09-11T10:13:18.998Z,90.61
2022-09-11T10:14:10.105Z,91.02
2022-09-11T10:15:05.687Z,91.83
2022-09-11T10:16:08.886Z,92.24
2022-09-11T10:17:05.639Z,92.44
2022-09-11T10:18:05.662Z,92.94
2022-09-11T10:19:05.614Z,92.94
2022-09-11T10:20:05.623Z,90.51
2022-09-11T10:21:08.609Z,91.32
2022-09-11T10:22:05.614Z,89.70
2022-09-11T10:23:05.593Z,89.29
2022-09-11T10:24:05.563Z,89.29
2022-09-11T10:25:05.540Z,90.51
2022-09-11T10:26:08.331Z,91.52
2022-09-11T10:27:05.559Z,91.89
2022-09-11T10:28:05.511Z,91.58
2022-09-11T10:29:05.490Z,86.71
2022-09-11T10:30:05.490Z,85.90
2022-09-11T10:31:05.478Z,85.39
2022-09-11T10:32:05.489Z,88.13
2022-09-11T10:33:05.435Z,89.96
2022-09-11T10:34:05.421Z,89.76
2022-09-11T10:35:05.443Z,90.57
2022-09-11T10:36:08.341Z,90.06
2022-09-11T10:37:05.382Z,90.57
2022-09-11T10:38:05.400Z,91.17
2022-09-11T10:39:05.348Z,91.78
2022-09-11T10:40:05.518Z,92.19
2022-09-11T10:41:07.839Z,92.19
2022-09-11T10:42:06.399Z,92.60
2022-09-11T10:43:05.831Z,92.60
2022-09-11T10:44:05.325Z,92.80
2022-09-11T10:45:05.277Z,93.41
2022-09-11T10:46:07.879Z,93.77
2022-09-11T10:47:05.271Z,92.25
2022-09-11T10:48:05.233Z,92.45
2022-09-11T10:49:05.207Z,91.85
2022-09-11T10:50:05.206Z,91.85
2022-09-11T10:51:07.841Z,92.25
2022-09-11T10:52:05.203Z,92.96
2022-09-11T10:53:05.161Z,92.76
2022-09-11T10:54:05.188Z,88.40
2022-09-11T10:55:05.133Z,87.59
2022-09-11T10:56:07.847Z,88.76
2022-09-11T10:57:05.111Z,90.18
2022-09-11T10:58:05.095Z,90.73
2022-09-11T10:59:05.146Z,90.99
2022-09-11T11:00:05.083Z,89.17
2022-09-11T11:01:07.298Z,86.53
2022-09-11T11:02:05.055Z,86.94
2022-09-11T11:03:05.028Z,87.04
2022-09-11T11:04:08.142Z,87.08
2022-09-11T11:05:05.036Z,86.68
2022-09-11T11:06:04.993Z,87.59
2022-09-11T11:07:04.975Z,88.86
2022-09-11T11:08:04.960Z,90.48
2022-09-11T11:09:04.988Z,90.99
2022-09-11T11:10:04.933Z,91.39
2022-09-11T11:11:04.924Z,91.50
2022-09-11T11:12:04.912Z,91.70
2022-09-11T11:13:04.892Z,91.60
2022-09-11T11:14:04.924Z,91.54
2022-09-11T11:15:04.866Z,91.03
2022-09-11T11:16:04.917Z,90.93
2022-09-11T11:17:04.897Z,91.03
2022-09-11T11:18:04.829Z,91.34
2022-09-11T11:19:04.814Z,92.19
2022-09-11T11:20:04.802Z,92.60
2022-09-11T11:21:04.806Z,93.00
2022-09-11T11:22:04.774Z,93.10
2022-09-11T11:23:04.753Z,93.15
2022-09-11T11:24:04.743Z,93.25
2022-09-11T11:25:04.731Z,93.25
2022-09-11T11:26:04.750Z,93.45
2022-09-11T11:27:04.820Z,93.35
2022-09-11T11:28:04.688Z,92.64
2022-09-11T11:29:04.673Z,92.94
2022-09-11T11:30:04.656Z,93.05
2022-09-11T11:31:06.841Z,92.13
2022-09-11T11:32:04.678Z,92.54
2022-09-11T11:33:04.624Z,93.09
2022-09-11T11:34:04.605Z,93.40
2022-09-11T11:35:04.608Z,93.80
2022-09-11T11:36:06.733Z,94.21
2022-09-11T11:37:04.649Z,92.07
2022-09-11T11:38:04.588Z,92.38
2022-09-11T11:39:04.542Z,90.96
2022-09-11T11:40:04.633Z,91.47
2022-09-11T11:41:04.514Z,92.89
2022-09-11T11:42:04.503Z,92.99
2022-09-11T11:43:04.512Z,93.40
2022-09-11T11:44:04.493Z,93.70
2022-09-11T11:45:04.474Z,94.00
2022-09-11T11:46:04.504Z,93.60
2022-09-11T11:47:04.456Z,94.00
2022-09-11T11:48:04.427Z,95.02
2022-09-11T11:49:04.403Z,94.51
2022-09-11T11:50:04.440Z,94.92
2022-09-11T11:51:04.369Z,94.82
2022-09-11T11:52:04.389Z,92.99
2022-09-11T11:53:04.370Z,93.70
2022-09-11T11:54:04.342Z,94.31
2022-09-11T11:55:04.315Z,94.87
2022-09-11T11:56:04.312Z,94.87
2022-09-11T11:57:04.311Z,94.77
2022-09-11T11:58:04.285Z,94.77
2022-09-11T11:59:04.267Z,93.96
2022-09-11T12:00:04.256Z,94.46
2022-09-11T12:01:04.281Z,94.57
2022-09-11T12:02:04.293Z,94.26
2022-09-11T12:03:04.210Z,93.55
2022-09-11T12:04:04.213Z,93.65
2022-09-11T12:05:04.184Z,93.76
2022-09-11T12:06:04.197Z,93.05
2022-09-11T12:07:04.189Z,93.45
2022-09-11T12:08:04.144Z,93.55
2022-09-11T12:09:04.145Z,93.55
2022-09-11T12:10:04.117Z,93.86
2022-09-11T12:11:04.107Z,93.45
2022-09-11T12:12:04.116Z,93.35
2022-09-11T12:13:04.092Z,93.25
2022-09-11T12:14:04.075Z,94.37
2022-09-11T12:15:04.044Z,93.86
2022-09-11T12:16:05.722Z,93.76
2022-09-11T12:17:04.060Z,93.76
2022-09-11T12:18:04.005Z,93.45
2022-09-11T12:19:04.008Z,93.15
2022-09-11T12:20:03.984Z,93.65
2022-09-11T12:21:04.005Z,93.45
2022-09-11T12:22:03.969Z,93.35
2022-09-11T12:23:03.952Z,92.94
2022-09-11T12:24:03.940Z,92.64
2022-09-11T12:25:03.926Z,93.15
2022-09-11T12:26:03.927Z,93.25
2022-09-11T12:27:03.903Z,93.35
2022-09-11T12:28:03.867Z,93.86
2022-09-11T12:29:03.854Z,94.26
2022-09-11T12:30:03.866Z,94.32
2022-09-11T12:31:03.859Z,94.42
2022-09-11T12:32:03.829Z,94.02
2022-09-11T12:33:03.836Z,93.91
2022-09-11T12:34:03.787Z,93.61
2022-09-11T12:35:03.797Z,93.30
2022-09-11T12:36:03.784Z,93.26
2022-09-11T12:37:03.756Z,94.27
2022-09-11T12:38:03.761Z,94.78
2022-09-11T12:39:03.721Z,95.09
2022-09-11T12:40:03.761Z,94.68
2022-09-11T12:41:03.776Z,94.89
2022-09-11T12:42:03.694Z,94.98
2022-09-11T12:43:06.377Z,94.98
2022-09-11T12:44:03.666Z,94.68
2022-09-11T12:45:03.674Z,94.34
2022-09-11T12:46:03.685Z,94.54
2022-09-11T12:47:03.612Z,94.23
2022-09-11T12:48:03.599Z,94.13
2022-09-11T12:49:21.507Z,93.22
2022-09-11T12:50:03.570Z,92.71
2022-09-11T12:51:03.551Z,93.02
2022-09-11T12:52:03.575Z,93.73